createdAt,value
2023-05-18T00:01:55.424Z,3.70
2023-05-18T00:04:26.160Z,3.40
2023-05-18T00:06:57.074Z,3.72
2023-05-18T00:09:25.778Z,3.20
2023-05-18T00:11:54.294Z,1.80
2023-05-18T00:14:22.636Z,1.83
2023-05-18T00:16:51.009Z,1.80
2023-05-18T00:19:20.380Z,2.60
2023-05-18T00:21:50.705Z,2.17
2023-05-18T00:24:19.932Z,2.17
2023-05-18T00:26:49.620Z,2.08
2023-05-18T00:29:18.853Z,2.08
2023-05-18T00:31:48.451Z,2.22
2023-05-18T00:34:17.494Z,2.05
2023-05-18T00:36:45.827Z,2.15
2023-05-18T00:39:15.603Z,3.25
2023-05-18T00:41:43.879Z,3.00
2023-05-18T00:44:12.394Z,3.40
2023-05-18T00:46:41.676Z,4.43
2023-05-18T00:49:10.028Z,4.57
2023-05-18T00:51:39.522Z,4.13
2023-05-18T00:54:08.340Z,3.50
2023-05-18T00:56:42.057Z,2.97
2023-05-18T00:59:12.007Z,2.80
2023-05-18T01:01:43.921Z,3.80
2023-05-18T01:04:14.472Z,3.78
2023-05-18T01:06:43.878Z,3.55
2023-05-18T01:09:13.881Z,3.95
2023-05-18T01:11:56.724Z,2.78
2023-05-18T01:14:32.373Z,3.65
2023-05-18T01:17:07.706Z,3.47
2023-05-18T01:20:13.171Z,3.58
2023-05-18T01:22:58.640Z,2.20
2023-05-18T01:25:36.772Z,2.30
2023-05-18T01:28:10.219Z,2.45
2023-05-18T01:30:42.173Z,2.60
2023-05-18T01:33:12.775Z,1.85
2023-05-18T01:35:48.099Z,2.15
2023-05-18T01:38:18.869Z,1.83
2023-05-18T01:40:56.614Z,1.80
2023-05-18T01:43:32.840Z,1.75
2023-05-18T01:46:10.572Z,2.00
2023-05-18T01:48:42.149Z,1.70
2023-05-18T01:51:14.182Z,1.73
2023-05-18T01:53:47.896Z,2.53
2023-05-18T01:56:16.406Z,1.92
2023-05-18T01:58:46.562Z,2.20
2023-05-18T02:01:20.315Z,1.90
2023-05-18T02:03:48.906Z,1.80
2023-05-18T02:06:17.305Z,2.45
2023-05-18T02:08:46.219Z,1.40
2023-05-18T02:11:14.611Z,1.90
2023-05-18T02:13:43.020Z,3.22
2023-05-18T02:16:13.968Z,2.67
2023-05-18T02:18:43.202Z,2.90
2023-05-18T02:21:11.729Z,3.30
2023-05-18T02:23:40.296Z,3.22
2023-05-18T02:26:09.131Z,3.25
2023-05-18T02:28:40.109Z,3.40
2023-05-18T02:31:09.778Z,3.47
2023-05-18T02:33:41.023Z,3.50
2023-05-18T02:36:10.464Z,3.65
2023-05-18T02:38:39.510Z,3.13
2023-05-18T02:41:08.235Z,3.20
2023-05-18T02:43:36.654Z,3.30
2023-05-18T02:46:05.363Z,2.97
2023-05-18T02:48:34.952Z,3.38
2023-05-18T02:51:04.727Z,3.10
2023-05-18T02:53:33.751Z,4.03
2023-05-18T02:56:08.515Z,3.17
2023-05-18T02:58:50.590Z,4.38
2023-05-18T03:01:27.621Z,3.47
2023-05-18T03:03:57.873Z,3.35
2023-05-18T03:06:30.458Z,3.60
2023-05-18T03:08:59.305Z,3.45
2023-05-18T03:11:46.779Z,3.85
2023-05-18T03:14:16.239Z,4.90
2023-05-18T03:16:45.548Z,4.35
2023-05-18T03:19:16.666Z,4.40
2023-05-18T03:21:46.577Z,4.85
2023-05-18T03:24:16.218Z,4.95
2023-05-18T03:26:48.531Z,6.70
2023-05-18T03:29:16.918Z,4.90
2023-05-18T03:31:45.223Z,5.32
2023-05-18T03:34:14.632Z,4.97
2023-05-18T03:36:47.583Z,5.05
2023-05-18T03:39:17.737Z,5.07
2023-05-18T03:41:46.120Z,4.63
2023-05-18T03:44:14.494Z,5.00
2023-05-18T03:46:43.967Z,4.32
2023-05-18T03:49:12.619Z,5.85
2023-05-18T03:51:43.554Z,6.32
2023-05-18T03:54:12.196Z,5.93
2023-05-18T03:56:42.245Z,6.32
2023-05-18T03:59:10.573Z,6.35
2023-05-18T04:01:42.331Z,6.38
2023-05-18T04:04:18.454Z,7.57
2023-05-18T04:06:47.190Z,6.20
2023-05-18T04:09:17.436Z,6.70
2023-05-18T04:11:47.170Z,6.65
2023-05-18T04:14:17.219Z,7.18
2023-05-18T04:16:46.577Z,6.75
2023-05-18T04:19:16.069Z,8.48
2023-05-18T04:21:44.472Z,7.65
2023-05-18T04:24:14.584Z,7.35
2023-05-18T04:26:43.615Z,7.95
2023-05-18T04:29:13.620Z,8.00
2023-05-18T04:31:44.730Z,8.63
2023-05-18T04:34:13.837Z,8.05
2023-05-18T04:36:43.963Z,8.25
2023-05-18T04:39:12.952Z,8.02
2023-05-18T04:41:42.398Z,8.13
2023-05-18T04:44:10.976Z,8.20
2023-05-18T04:46:41.011Z,8.82
2023-05-18T04:49:11.790Z,8.77
2023-05-18T04:51:42.151Z,11.02
2023-05-18T04:54:10.652Z,9.60
2023-05-18T04:56:38.954Z,8.80
2023-05-18T04:59:10.886Z,8.32
2023-05-18T05:01:40.685Z,7.90
2023-05-18T05:04:09.382Z,8.52
2023-05-18T05:06:37.730Z,8.95
2023-05-18T05:09:06.370Z,8.65
2023-05-18T05:11:34.962Z,9.98
2023-05-18T05:14:03.818Z,9.45
2023-05-18T05:16:32.688Z,9.27
2023-05-18T05:19:02.594Z,9.65
2023-05-18T05:21:31.497Z,11.23
2023-05-18T05:24:01.768Z,10.15
2023-05-18T05:26:31.013Z,9.18
2023-05-18T05:28:59.925Z,8.23
2023-05-18T05:31:28.413Z,9.00
2023-05-18T05:33:56.885Z,7.72
2023-05-18T05:36:26.735Z,8.25
2023-05-18T05:38:55.071Z,8.80
2023-05-18T05:41:23.850Z,7.80
2023-05-18T05:43:52.214Z,8.20
2023-05-18T05:46:21.239Z,9.10
2023-05-18T05:48:49.746Z,8.10
2023-05-18T05:51:18.161Z,8.00
2023-05-18T05:53:49.533Z,7.50
2023-05-18T05:56:18.918Z,7.73
2023-05-18T05:58:48.401Z,6.93
2023-05-18T06:01:16.615Z,6.90
2023-05-18T06:03:45.422Z,7.80
2023-05-18T06:06:14.789Z,8.77
2023-05-18T06:08:43.416Z,8.80
2023-05-18T06:11:13.958Z,8.40
2023-05-18T06:13:42.359Z,9.38
2023-05-18T06:16:10.667Z,8.45
2023-05-18T06:18:39.591Z,10.47
2023-05-18T06:21:07.961Z,9.50
2023-05-18T06:23:36.461Z,8.63
2023-05-18T06:26:04.821Z,9.23
2023-05-18T06:28:40.355Z,9.23
2023-05-18T06:31:17.152Z,10.30
2023-05-18T06:33:52.189Z,11.05
2023-05-18T06:36:20.597Z,11.77
2023-05-18T06:38:49.087Z,11.30
2023-05-18T06:41:17.560Z,12.50
2023-05-18T06:43:47.467Z,12.02
2023-05-18T06:46:23.059Z,11.15
2023-05-18T06:49:11.871Z,10.90
2023-05-18T06:51:41.678Z,12.20
2023-05-18T06:54:10.083Z,13.20
2023-05-18T06:56:38.589Z,14.63
2023-05-18T06:59:08.322Z,15.13
2023-05-18T07:01:36.901Z,13.38
2023-05-18T07:04:06.384Z,14.60
2023-05-18T07:06:34.986Z,13.50
2023-05-18T07:09:03.998Z,14.70
2023-05-18T07:11:32.354Z,15.33
2023-05-18T07:14:00.676Z,14.50
2023-05-18T07:16:30.591Z,13.27
2023-05-18T07:18:59.875Z,14.00
2023-05-18T07:21:28.249Z,13.33
2023-05-18T07:23:56.625Z,13.55
2023-05-18T07:26:25.120Z,13.93
2023-05-18T07:28:53.629Z,14.10
2023-05-18T07:31:22.687Z,13.75
2023-05-18T07:33:52.756Z,13.55
2023-05-18T07:36:21.186Z,13.13
2023-05-18T07:38:53.042Z,12.80
2023-05-18T07:41:21.358Z,14.05
2023-05-18T07:43:50.223Z,13.38
2023-05-18T07:46:18.532Z,13.98
2023-05-18T07:48:47.262Z,14.10
2023-05-18T07:51:17.218Z,13.07
2023-05-18T07:53:46.574Z,13.38
2023-05-18T07:56:14.992Z,12.45
2023-05-18T07:58:43.351Z,13.60
2023-05-18T08:01:11.517Z,13.32
2023-05-18T08:03:39.753Z,12.70
2023-05-18T08:06:08.547Z,13.68
2023-05-18T08:08:38.299Z,12.43
2023-05-18T08:11:06.795Z,12.48
2023-05-18T08:13:35.006Z,13.48
2023-05-18T08:16:11.660Z,13.23
2023-05-18T08:18:40.962Z,14.93
2023-05-18T08:21:10.203Z,14.38
2023-05-18T08:23:40.857Z,12.40
2023-05-18T08:26:10.938Z,13.68
2023-05-18T08:28:40.145Z,14.82
2023-05-18T08:31:08.484Z,13.47
2023-05-18T08:33:36.790Z,13.45
2023-05-18T08:36:05.323Z,13.70
2023-05-18T08:38:33.684Z,12.80
2023-05-18T08:41:13.918Z,12.57
2023-05-18T08:43:47.124Z,15.30
2023-05-18T08:46:21.613Z,13.80
2023-05-18T08:48:53.659Z,11.45
2023-05-18T08:51:23.385Z,11.63
2023-05-18T08:53:54.151Z,11.52
2023-05-18T08:56:26.659Z,12.30
2023-05-18T08:58:57.857Z,12.70
2023-05-18T09:01:29.226Z,12.93
2023-05-18T09:03:58.600Z,11.68
2023-05-18T09:06:28.504Z,11.47
2023-05-18T09:08:58.451Z,10.60
2023-05-18T09:11:29.055Z,12.23
2023-05-18T09:13:57.306Z,9.87
2023-05-18T09:16:25.645Z,10.87
2023-05-18T09:18:54.137Z,10.23
2023-05-18T09:21:22.432Z,9.53
2023-05-18T09:23:52.027Z,10.90
2023-05-18T09:26:21.203Z,11.20
2023-05-18T09:28:53.988Z,11.77
2023-05-18T09:31:24.836Z,9.50
2023-05-18T09:33:53.602Z,10.70
2023-05-18T09:36:28.606Z,9.80
2023-05-18T09:38:58.530Z,9.83
2023-05-18T09:41:28.097Z,11.43
2023-05-18T09:43:57.701Z,11.38
2023-05-18T09:46:26.000Z,11.00
2023-05-18T09:48:56.363Z,11.20
2023-05-18T09:51:25.704Z,10.67
2023-05-18T09:53:59.208Z,10.57
2023-05-18T09:56:28.479Z,10.70
2023-05-18T09:59:00.730Z,11.23
2023-05-18T10:01:30.188Z,10.50
2023-05-18T10:04:05.159Z,9.93
2023-05-18T10:06:33.639Z,10.50
2023-05-18T10:09:03.752Z,9.33
2023-05-18T10:11:36.478Z,9.77
2023-05-18T10:14:06.326Z,10.43
2023-05-18T10:16:34.689Z,10.50
2023-05-18T10:19:04.890Z,10.63
2023-05-18T10:21:35.847Z,11.20
2023-05-18T10:24:08.732Z,10.47
2023-05-18T10:26:42.581Z,12.83
2023-05-18T10:29:12.921Z,12.50
2023-05-18T10:31:42.553Z,14.70
2023-05-18T10:34:11.845Z,14.93
2023-05-18T10:36:40.567Z,12.50
2023-05-18T10:39:09.276Z,14.50
2023-05-18T10:41:39.649Z,12.90
2023-05-18T10:44:08.634Z,14.40
2023-05-18T10:46:38.750Z,15.70
2023-05-18T10:49:13.389Z,13.13
2023-05-18T10:51:43.725Z,11.50
2023-05-18T10:54:14.604Z,12.43
2023-05-18T10:56:45.785Z,12.93
2023-05-18T10:59:15.264Z,12.07
2023-05-18T11:01:46.400Z,14.00
2023-05-18T11:04:14.832Z,23.20
2023-05-18T11:06:43.398Z,17.37
2023-05-18T11:09:24.083Z,13.57
2023-05-18T11:11:53.495Z,13.20
2023-05-18T11:14:28.472Z,14.10
2023-05-18T11:17:17.126Z,15.33
2023-05-18T11:20:13.039Z,13.90
2023-05-18T11:22:47.790Z,13.37
2023-05-18T11:25:37.772Z,13.20
2023-05-18T11:28:07.778Z,13.33
2023-05-18T11:30:51.283Z,14.10
2023-05-18T11:33:26.087Z,15.07
2023-05-18T11:36:08.189Z,13.70
2023-05-18T11:39:07.060Z,12.57
2023-05-18T11:41:36.498Z,12.57
2023-05-18T11:44:16.613Z,10.17
2023-05-18T11:46:56.353Z,10.03
2023-05-18T11:49:27.627Z,9.30
2023-05-18T11:52:03.777Z,9.00
2023-05-18T11:54:36.344Z,8.15
2023-05-18T11:57:04.849Z,7.60
2023-05-18T11:59:35.005Z,7.60
2023-05-18T12:02:04.266Z,7.90
2023-05-18T12:04:34.409Z,6.18
2023-05-18T12:07:08.118Z,7.03
2023-05-18T12:09:36.898Z,7.55
2023-05-18T12:12:05.479Z,5.70
2023-05-18T12:14:36.197Z,7.05
2023-05-18T12:17:05.408Z,7.43
2023-05-18T12:19:42.584Z,7.73
2023-05-18T12:22:11.426Z,7.72
2023-05-18T12:24:40.240Z,7.27
2023-05-18T12:27:10.249Z,8.75
2023-05-18T12:29:40.351Z,7.40
2023-05-18T12:32:10.704Z,8.30
2023-05-18T12:34:40.994Z,7.50
2023-05-18T12:37:09.242Z,8.30
2023-05-18T12:39:37.895Z,8.00
2023-05-18T12:42:16.350Z,8.40
2023-05-18T12:44:48.036Z,7.90
2023-05-18T12:47:16.484Z,8.17
2023-05-18T12:49:51.338Z,7.95
2023-05-18T12:52:22.189Z,7.60
2023-05-18T12:54:55.800Z,9.27
2023-05-18T12:57:27.424Z,9.50
2023-05-18T12:59:56.254Z,10.30
2023-05-18T13:02:33.055Z,7.32
2023-05-18T13:05:05.663Z,7.25
2023-05-18T13:07:34.491Z,7.87
2023-05-18T13:10:04.605Z,8.15
2023-05-18T13:12:46.386Z,8.95
2023-05-18T13:15:17.172Z,8.35
2023-05-18T13:17:59.263Z,7.43
2023-05-18T13:20:37.963Z,6.82
2023-05-18T13:23:08.230Z,5.45
2023-05-18T13:25:36.598Z,7.80
2023-05-18T13:28:05.103Z,7.10
2023-05-18T13:30:34.146Z,7.55
2023-05-18T13:33:02.639Z,7.27
2023-05-18T13:35:31.220Z,6.10
2023-05-18T13:38:01.029Z,6.40
2023-05-18T13:40:29.323Z,6.10
2023-05-18T13:42:57.606Z,5.90
2023-05-18T13:45:25.957Z,5.43
2023-05-18T13:47:54.493Z,5.40
2023-05-18T13:50:23.300Z,6.03
2023-05-18T13:52:51.584Z,5.50
2023-05-18T13:55:21.226Z,6.00
2023-05-18T13:57:49.402Z,6.03
2023-05-18T14:00:18.176Z,5.63
2023-05-18T14:02:46.683Z,4.70
2023-05-18T14:05:15.865Z,5.43
2023-05-18T14:07:44.748Z,5.37
2023-05-18T14:10:15.010Z,4.60
2023-05-18T14:12:44.646Z,4.73
2023-05-18T14:15:14.932Z,5.30
2023-05-18T14:17:43.631Z,4.50
2023-05-18T14:20:13.321Z,5.03
2023-05-18T14:22:41.989Z,5.10
2023-05-18T14:25:10.478Z,5.47
2023-05-18T14:27:38.659Z,4.80
2023-05-18T14:30:09.681Z,4.90
2023-05-18T14:32:37.970Z,5.33
2023-05-18T14:35:07.022Z,5.57
2023-05-18T14:37:35.268Z,6.90
2023-05-18T14:40:05.949Z,6.00
2023-05-18T14:42:36.469Z,5.60
2023-05-18T14:45:05.560Z,5.30
2023-05-18T14:47:35.136Z,4.90
2023-05-18T14:50:03.638Z,4.87
2023-05-18T14:52:31.917Z,5.87
2023-05-18T14:55:00.366Z,5.47
2023-05-18T14:57:28.575Z,6.07
2023-05-18T14:59:56.846Z,6.20
2023-05-18T15:02:25.176Z,6.13
2023-05-18T15:04:54.847Z,6.07
2023-05-18T15:07:23.414Z,7.70
2023-05-18T15:09:51.819Z,6.13
2023-05-18T15:12:21.351Z,7.47
2023-05-18T15:14:49.810Z,7.70
2023-05-18T15:17:18.325Z,8.60
2023-05-18T15:19:47.137Z,7.77
2023-05-18T15:22:16.871Z,7.10
2023-05-18T15:24:45.145Z,8.40
2023-05-18T15:27:13.498Z,8.37
2023-05-18T15:29:41.756Z,8.80
2023-05-18T15:32:09.957Z,8.67
2023-05-18T15:34:38.289Z,7.22
2023-05-18T15:37:06.598Z,9.50
2023-05-18T15:39:38.517Z,9.80
2023-05-18T15:42:07.210Z,10.02
2023-05-18T15:44:35.477Z,10.60
2023-05-18T15:47:03.902Z,10.48
2023-05-18T15:49:32.127Z,9.77
2023-05-18T15:52:00.593Z,9.85
2023-05-18T15:54:29.112Z,8.32
2023-05-18T15:56:58.674Z,8.27
2023-05-18T15:59:26.927Z,9.00
2023-05-18T16:01:55.177Z,9.70
2023-05-18T16:04:23.418Z,9.17
2023-05-18T16:06:51.696Z,11.15
2023-05-18T16:09:20.144Z,8.00
2023-05-18T16:11:48.318Z,9.32
2023-05-18T16:14:18.017Z,6.00
2023-05-18T16:16:46.278Z,8.13
2023-05-18T16:19:14.688Z,8.02
2023-05-18T16:21:43.213Z,7.87
2023-05-18T16:24:11.495Z,8.10
2023-05-18T16:26:40.160Z,8.23
2023-05-18T16:29:09.038Z,7.83
2023-05-18T16:31:38.644Z,7.83
2023-05-18T16:34:06.870Z,7.80
2023-05-18T16:36:36.575Z,8.90
2023-05-18T16:39:05.016Z,8.10
2023-05-18T16:41:33.204Z,9.98
2023-05-18T16:44:01.494Z,10.53
2023-05-18T16:46:29.702Z,10.40
2023-05-18T16:48:59.380Z,11.07
2023-05-18T16:51:27.711Z,11.17
2023-05-18T16:53:55.906Z,11.10
2023-05-18T16:56:25.431Z,11.40
2023-05-18T16:58:53.922Z,11.80
2023-05-18T17:01:28.255Z,11.10
2023-05-18T17:03:57.908Z,10.83
2023-05-18T17:06:27.997Z,11.20
2023-05-18T17:08:58.682Z,11.60
2023-05-18T17:11:28.016Z,10.67
2023-05-18T17:13:57.717Z,10.73
2023-05-18T17:16:27.325Z,10.73
2023-05-18T17:18:56.331Z,11.37
2023-05-18T17:21:26.718Z,11.30
2023-05-18T17:23:56.572Z,11.90
2023-05-18T17:26:25.501Z,11.87
2023-05-18T17:28:54.204Z,12.40
2023-05-18T17:31:22.649Z,11.88
2023-05-18T17:33:50.994Z,12.03
2023-05-18T17:36:19.221Z,11.50
2023-05-18T17:38:47.952Z,14.50
2023-05-18T17:41:17.625Z,12.77
2023-05-18T17:43:45.853Z,12.90
2023-05-18T17:46:14.208Z,11.93
2023-05-18T17:48:42.484Z,12.23
2023-05-18T17:51:10.856Z,12.73
2023-05-18T17:53:42.109Z,12.70
2023-05-18T17:56:11.915Z,12.47
2023-05-18T17:58:41.709Z,12.93
2023-05-18T18:01:10.593Z,12.80
2023-05-18T18:03:39.395Z,12.27
2023-05-18T18:06:08.516Z,13.00
2023-05-18T18:08:36.961Z,13.27
2023-05-18T18:11:07.666Z,13.23
2023-05-18T18:13:37.691Z,14.25
2023-05-18T18:16:07.679Z,13.10
2023-05-18T18:18:37.357Z,14.52
2023-05-18T18:21:06.507Z,14.27
2023-05-18T18:23:35.785Z,15.82
2023-05-18T18:26:05.080Z,18.10
2023-05-18T18:28:34.102Z,18.57
2023-05-18T18:31:03.503Z,17.93
2023-05-18T18:33:33.698Z,18.03
2023-05-18T18:36:02.367Z,15.70
2023-05-18T18:38:31.236Z,16.80
2023-05-18T18:41:01.730Z,13.93
2023-05-18T18:43:30.271Z,15.07
2023-05-18T18:45:58.640Z,12.38
2023-05-18T18:48:26.969Z,13.10
2023-05-18T18:50:56.912Z,17.20
2023-05-18T18:53:25.223Z,19.40
2023-05-18T18:55:53.679Z,16.25
2023-05-18T18:58:24.312Z,12.30
2023-05-18T19:00:52.645Z,19.23
2023-05-18T19:03:21.878Z,13.20
2023-05-18T19:05:51.495Z,11.70
2023-05-18T19:08:21.492Z,12.18
2023-05-18T19:10:50.338Z,12.60
2023-05-18T19:13:18.665Z,12.25
2023-05-18T19:15:47.554Z,15.30
2023-05-18T19:18:16.084Z,13.90
2023-05-18T19:20:44.367Z,15.27
2023-05-18T19:23:12.704Z,14.30
2023-05-18T19:25:42.411Z,13.40
2023-05-18T19:28:11.165Z,14.55
2023-05-18T19:30:39.397Z,13.68
2023-05-18T19:33:07.787Z,13.55
2023-05-18T19:35:36.337Z,13.35
2023-05-18T19:38:04.694Z,13.50
2023-05-18T19:40:33.107Z,12.95
2023-05-18T19:43:03.504Z,14.85
2023-05-18T19:45:33.623Z,16.73
2023-05-18T19:48:02.299Z,16.42
2023-05-18T19:50:30.546Z,17.13
2023-05-18T19:52:58.845Z,18.52
2023-05-18T19:55:27.751Z,17.50
2023-05-18T19:57:56.612Z,18.23
2023-05-18T20:00:27.561Z,17.45
2023-05-18T20:02:56.045Z,14.43
2023-05-18T20:05:25.594Z,16.52
2023-05-18T20:07:53.891Z,17.40
2023-05-18T20:10:22.268Z,18.83
2023-05-18T20:12:50.856Z,19.38
2023-05-18T20:15:19.194Z,18.33
2023-05-18T20:17:49.192Z,16.90
2023-05-18T20:20:20.134Z,16.35
2023-05-18T20:22:48.496Z,14.27
2023-05-18T20:25:17.111Z,14.68
2023-05-18T20:27:45.486Z,15.05
2023-05-18T20:30:14.005Z,13.63
2023-05-18T20:32:42.287Z,14.13
2023-05-18T20:35:12.913Z,13.00
2023-05-18T20:37:41.538Z,13.43
2023-05-18T20:40:10.884Z,12.80
2023-05-18T20:42:40.469Z,13.35
2023-05-18T20:45:10.366Z,13.77
2023-05-18T20:47:38.935Z,14.00
2023-05-18T20:50:09.235Z,13.35
2023-05-18T20:52:38.914Z,14.20
2023-05-18T20:55:07.973Z,13.73
2023-05-18T20:57:38.472Z,13.63
2023-05-18T21:00:08.145Z,15.90
2023-05-18T21:02:37.470Z,14.50
2023-05-18T21:05:06.861Z,13.95
2023-05-18T21:07:37.789Z,14.52
2023-05-18T21:10:08.543Z,15.52
2023-05-18T21:12:37.323Z,15.50
2023-05-18T21:15:06.287Z,17.98
2023-05-18T21:17:34.800Z,20.27
2023-05-18T21:20:03.794Z,23.70
2023-05-18T21:22:32.293Z,21.88
2023-05-18T21:25:00.512Z,25.20
2023-05-18T21:27:30.120Z,26.88
2023-05-18T21:29:58.414Z,27.65
2023-05-18T21:32:26.980Z,21.90
2023-05-18T21:34:55.380Z,21.25
2023-05-18T21:37:23.765Z,17.83
2023-05-18T21:39:52.067Z,17.15
2023-05-18T21:42:20.364Z,14.25
2023-05-18T21:44:50.053Z,13.50
2023-05-18T21:47:18.461Z,11.82
2023-05-18T21:49:46.753Z,12.32
2023-05-18T21:52:15.712Z,11.77
2023-05-18T21:54:43.995Z,11.65
2023-05-18T21:57:12.409Z,12.25
2023-05-18T21:59:40.581Z,11.60
2023-05-18T22:02:10.228Z,9.57
2023-05-18T22:04:38.552Z,10.55
2023-05-18T22:07:06.942Z,9.20
2023-05-18T22:09:35.501Z,9.50
2023-05-18T22:12:03.885Z,8.52
2023-05-18T22:14:32.175Z,8.93
2023-05-18T22:17:02.145Z,8.60
2023-05-18T22:19:31.916Z,8.00
2023-05-18T22:22:01.520Z,8.35
2023-05-18T22:24:29.733Z,7.95
2023-05-18T22:26:58.043Z,7.70
2023-05-18T22:29:26.315Z,6.80
2023-05-18T22:31:54.686Z,7.55
2023-05-18T22:34:22.995Z,7.30
2023-05-18T22:36:52.706Z,8.30
2023-05-18T22:39:21.038Z,7.25
2023-05-18T22:41:49.383Z,7.22
2023-05-18T22:44:17.622Z,6.50
2023-05-18T22:46:46.052Z,6.55
2023-05-18T22:49:15.174Z,6.80
2023-05-18T22:51:43.473Z,7.38
2023-05-18T22:54:13.159Z,6.60
2023-05-18T22:56:41.417Z,6.68
2023-05-18T22:59:11.561Z,6.75
2023-05-18T23:01:39.976Z,6.32
2023-05-18T23:04:08.625Z,6.63
2023-05-18T23:06:37.039Z,7.22
2023-05-18T23:09:05.501Z,6.40
2023-05-18T23:11:36.017Z,5.95
2023-05-18T23:14:04.380Z,7.70
2023-05-18T23:16:32.816Z,8.40
2023-05-18T23:19:01.877Z,8.10
2023-05-18T23:21:31.041Z,9.32
2023-05-18T23:23:59.869Z,9.35
2023-05-18T23:26:28.245Z,8.80
2023-05-18T23:28:58.098Z,9.68
2023-05-18T23:31:26.883Z,9.25
2023-05-18T23:33:55.919Z,9.13
2023-05-18T23:36:27.372Z,11.15
2023-05-18T23:38:59.044Z,10.40
2023-05-18T23:41:28.505Z,10.95
2023-05-18T23:43:59.135Z,10.80
2023-05-18T23:46:28.200Z,11.57
2023-05-18T23:48:57.924Z,10.10
2023-05-18T23:51:29.937Z,10.30
2023-05-18T23:54:00.038Z,12.55
2023-05-18T23:56:28.888Z,11.27
2023-05-18T23:59:01.645Z,10.55
